sensor_id;sensor_type;location;lat;lon;timestamp;pressure;altitude;pressure_sealevel;temperature;humidity
74716;BME280;63234;37.558;127.058;2023-09-30T00:00:57;100928.16;;;18.39;68.15
74716;BME280;63234;37.558;127.058;2023-09-30T00:03:23;100930.06;;;18.38;67.78
74716;BME280;63234;37.558;127.058;2023-09-30T00:05:49;100925.25;;;18.45;67.95
74716;BME280;63234;37.558;127.058;2023-09-30T00:08:15;100929.22;;;18.38;68.22
74716;BME280;63234;37.558;127.058;2023-09-30T00:10:41;100923.69;;;18.49;67.78
74716;BME280;63234;37.558;127.058;2023-09-30T00:13:07;100916.41;;;18.50;67.79
74716;BME280;63234;37.558;127.058;2023-09-30T00:15:33;100928.03;;;18.50;67.98
74716;BME280;63234;37.558;127.058;2023-09-30T00:17:59;100924.66;;;18.38;68.15
74716;BME280;63234;37.558;127.058;2023-09-30T00:20:25;100916.22;;;18.29;68.50
74716;BME280;63234;37.558;127.058;2023-09-30T00:22:50;100921.19;;;18.43;68.22
74716;BME280;63234;37.558;127.058;2023-09-30T00:25:16;100927.50;;;18.53;67.89
74716;BME280;63234;37.558;127.058;2023-09-30T00:27:42;100930.44;;;18.25;68.81
74716;BME280;63234;37.558;127.058;2023-09-30T00:30:08;100931.81;;;18.27;68.76
74716;BME280;63234;37.558;127.058;2023-09-30T00:32:34;100923.25;;;18.08;69.49
74716;BME280;63234;37.558;127.058;2023-09-30T00:35:03;100922.75;;;18.11;69.49
74716;BME280;63234;37.558;127.058;2023-09-30T00:37:28;100930.66;;;17.96;70.01
74716;BME280;63234;37.558;127.058;2023-09-30T00:39:54;100931.16;;;17.93;70.05
74716;BME280;63234;37.558;127.058;2023-09-30T00:42:21;100928.94;;;18.12;69.53
74716;BME280;63234;37.558;127.058;2023-09-30T00:44:47;100921.94;;;18.11;69.38
74716;BME280;63234;37.558;127.058;2023-09-30T00:47:14;100928.25;;;18.22;68.90
74716;BME280;63234;37.558;127.058;2023-09-30T00:49:41;100931.31;;;18.30;68.69
74716;BME280;63234;37.558;127.058;2023-09-30T00:52:10;100943.28;;;18.18;69.03
74716;BME280;63234;37.558;127.058;2023-09-30T00:54:36;100942.63;;;18.10;69.18
74716;BME280;63234;37.558;127.058;2023-09-30T00:57:03;100940.53;;;18.13;69.35
74716;BME280;63234;37.558;127.058;2023-09-30T00:59:31;100945.91;;;18.13;69.34
74716;BME280;63234;37.558;127.058;2023-09-30T01:01:59;100945.97;;;18.18;69.03
74716;BME280;63234;37.558;127.058;2023-09-30T01:04:28;100936.75;;;18.14;69.39
74716;BME280;63234;37.558;127.058;2023-09-30T01:06:54;100929.44;;;18.09;69.28
74716;BME280;63234;37.558;127.058;2023-09-30T01:09:23;100934.41;;;18.17;69.30
74716;BME280;63234;37.558;127.058;2023-09-30T01:11:50;100934.06;;;18.14;69.14
74716;BME280;63234;37.558;127.058;2023-09-30T01:14:29;100942.59;;;18.05;69.54
74716;BME280;63234;37.558;127.058;2023-09-30T01:16:56;100938.84;;;18.06;69.54
74716;BME280;63234;37.558;127.058;2023-09-30T01:19:24;100939.84;;;18.00;69.86
74716;BME280;63234;37.558;127.058;2023-09-30T01:21:59;100945.22;;;18.00;69.71
74716;BME280;63234;37.558;127.058;2023-09-30T01:24:31;100944.59;;;17.93;70.19
74716;BME280;63234;37.558;127.058;2023-09-30T01:26:57;100948.28;;;18.09;69.53
74716;BME280;63234;37.558;127.058;2023-09-30T01:29:23;100943.22;;;18.13;69.42
74716;BME280;63234;37.558;127.058;2023-09-30T01:31:51;100942.34;;;18.07;69.79
74716;BME280;63234;37.558;127.058;2023-09-30T01:34:17;100931.53;;;18.02;69.66
74716;BME280;63234;37.558;127.058;2023-09-30T01:36:43;100933.75;;;18.10;69.51
74716;BME280;63234;37.558;127.058;2023-09-30T01:39:10;100929.16;;;18.05;69.50
74716;BME280;63234;37.558;127.058;2023-09-30T01:41:37;100937.63;;;18.19;69.30
74716;BME280;63234;37.558;127.058;2023-09-30T01:44:03;100942.03;;;18.03;69.47
74716;BME280;63234;37.558;127.058;2023-09-30T01:46:29;100940.09;;;17.99;69.91
74716;BME280;63234;37.558;127.058;2023-09-30T01:48:55;100940.69;;;18.28;69.00
74716;BME280;63234;37.558;127.058;2023-09-30T01:51:21;100954.75;;;18.08;69.24
74716;BME280;63234;37.558;127.058;2023-09-30T01:53:47;100955.75;;;18.02;69.33
74716;BME280;63234;37.558;127.058;2023-09-30T01:56:13;100943.91;;;18.03;69.68
74716;BME280;63234;37.558;127.058;2023-09-30T01:58:39;100955.66;;;18.19;69.14
74716;BME280;63234;37.558;127.058;2023-09-30T02:01:05;100946.22;;;18.16;68.03
74716;BME280;63234;37.558;127.058;2023-09-30T02:03:31;100946.66;;;18.08;68.35
74716;BME280;63234;37.558;127.058;2023-09-30T02:05:57;100956.56;;;18.02;68.82
74716;BME280;63234;37.558;127.058;2023-09-30T02:08:23;100952.97;;;17.97;68.92
74716;BME280;63234;37.558;127.058;2023-09-30T02:10:49;100955.06;;;17.90;69.26
74716;BME280;63234;37.558;127.058;2023-09-30T02:13:23;100957.44;;;18.08;68.94
74716;BME280;63234;37.558;127.058;2023-09-30T02:15:49;100961.56;;;18.16;68.81
74716;BME280;63234;37.558;127.058;2023-09-30T02:18:21;100951.47;;;18.06;68.96
74716;BME280;63234;37.558;127.058;2023-09-30T02:20:47;100946.22;;;17.94;69.51
74716;BME280;63234;37.558;127.058;2023-09-30T02:23:13;100959.88;;;17.87;69.33
74716;BME280;63234;37.558;127.058;2023-09-30T02:25:41;100957.09;;;17.82;69.80
74716;BME280;63234;37.558;127.058;2023-09-30T02:28:09;100961.34;;;17.78;69.89
74716;BME280;63234;37.558;127.058;2023-09-30T02:30:35;100949.91;;;17.88;69.71
74716;BME280;63234;37.558;127.058;2023-09-30T02:33:02;100965.63;;;17.96;69.56
74716;BME280;63234;37.558;127.058;2023-09-30T02:35:29;100958.09;;;17.98;69.36
74716;BME280;63234;37.558;127.058;2023-09-30T02:37:55;100963.56;;;18.03;69.31
74716;BME280;63234;37.558;127.058;2023-09-30T02:40:20;100971.13;;;18.06;68.89
74716;BME280;63234;37.558;127.058;2023-09-30T02:42:50;100967.38;;;18.07;68.84
74716;BME280;63234;37.558;127.058;2023-09-30T02:45:16;100977.31;;;18.07;69.09
74716;BME280;63234;37.558;127.058;2023-09-30T02:47:43;100958.69;;;18.00;69.46
74716;BME280;63234;37.558;127.058;2023-09-30T02:50:09;100971.25;;;18.17;68.81
74716;BME280;63234;37.558;127.058;2023-09-30T02:52:39;100965.81;;;18.11;69.33
74716;BME280;63234;37.558;127.058;2023-09-30T02:55:08;100972.75;;;18.07;69.51
74716;BME280;63234;37.558;127.058;2023-09-30T02:57:34;100974.59;;;18.02;69.52
74716;BME280;63234;37.558;127.058;2023-09-30T03:00:05;100981.19;;;17.94;70.37
74716;BME280;63234;37.558;127.058;2023-09-30T03:02:53;100977.50;;;18.00;69.76
74716;BME280;63234;37.558;127.058;2023-09-30T03:05:19;100979.13;;;18.01;69.77
74716;BME280;63234;37.558;127.058;2023-09-30T03:07:45;100964.63;;;18.02;69.90
74716;BME280;63234;37.558;127.058;2023-09-30T03:10:11;100972.63;;;17.97;70.13
74716;BME280;63234;37.558;127.058;2023-09-30T03:12:39;100967.38;;;18.07;69.74
74716;BME280;63234;37.558;127.058;2023-09-30T03:15:06;100960.28;;;18.01;70.16
74716;BME280;63234;37.558;127.058;2023-09-30T03:17:32;100959.78;;;18.04;70.08
74716;BME280;63234;37.558;127.058;2023-09-30T03:20:01;100961.66;;;18.04;70.30
74716;BME280;63234;37.558;127.058;2023-09-30T03:22:27;100952.59;;;17.88;70.61
74716;BME280;63234;37.558;127.058;2023-09-30T03:24:54;100952.97;;;17.97;70.46
74716;BME280;63234;37.558;127.058;2023-09-30T03:27:22;100959.06;;;17.87;70.77
74716;BME280;63234;37.558;127.058;2023-09-30T03:29:48;100953.09;;;17.85;70.95
74716;BME280;63234;37.558;127.058;2023-09-30T03:32:15;100946.59;;;17.81;71.07
74716;BME280;63234;37.558;127.058;2023-09-30T03:34:41;100936.97;;;17.85;71.08
74716;BME280;63234;37.558;127.058;2023-09-30T03:37:10;100930.50;;;17.86;71.02
74716;BME280;63234;37.558;127.058;2023-09-30T03:39:36;100945.59;;;17.87;70.91
74716;BME280;63234;37.558;127.058;2023-09-30T03:42:02;100940.31;;;17.75;71.13
74716;BME280;63234;37.558;127.058;2023-09-30T03:44:29;100945.78;;;17.63;71.44
74716;BME280;63234;37.558;127.058;2023-09-30T03:46:54;100966.13;;;17.76;71.26
74716;BME280;63234;37.558;127.058;2023-09-30T03:49:22;100950.44;;;17.68;71.57
74716;BME280;63234;37.558;127.058;2023-09-30T03:51:48;100952.28;;;17.67;71.54
74716;BME280;63234;37.558;127.058;2023-09-30T03:54:17;100956.13;;;17.72;71.56
74716;BME280;63234;37.558;127.058;2023-09-30T03:56:45;100944.78;;;17.70;71.45
74716;BME280;63234;37.558;127.058;2023-09-30T03:59:12;100934.22;;;17.63;71.48
74716;BME280;63234;37.558;127.058;2023-09-30T04:01:37;100946.75;;;17.74;71.54
74716;BME280;63234;37.558;127.058;2023-09-30T04:04:08;100953.94;;;17.69;71.61
74716;BME280;63234;37.558;127.058;2023-09-30T04:06:35;100966.41;;;17.75;71.40
74716;BME280;63234;37.558;127.058;2023-09-30T04:09:05;100970.63;;;17.71;71.72
74716;BME280;63234;37.558;127.058;2023-09-30T04:11:41;100964.19;;;17.72;71.58
74716;BME280;63234;37.558;127.058;2023-09-30T04:14:09;100973.81;;;17.67;71.85
74716;BME280;63234;37.558;127.058;2023-09-30T04:16:36;100964.97;;;17.50;72.22
74716;BME280;63234;37.558;127.058;2023-09-30T04:19:03;100960.91;;;17.48;72.33
74716;BME280;63234;37.558;127.058;2023-09-30T04:21:30;100969.59;;;17.55;72.37
74716;BME280;63234;37.558;127.058;2023-09-30T04:24:00;100968.06;;;17.42;72.69
74716;BME280;63234;37.558;127.058;2023-09-30T04:26:26;100960.31;;;17.62;71.76
74716;BME280;63234;37.558;127.058;2023-09-30T04:28:52;100966.22;;;17.26;72.94
74716;BME280;63234;37.558;127.058;2023-09-30T04:31:22;100990.81;;;17.17;73.21
74716;BME280;63234;37.558;127.058;2023-09-30T04:33:49;100998.13;;;17.22;73.35
74716;BME280;63234;37.558;127.058;2023-09-30T04:36:19;100997.31;;;17.22;73.38
74716;BME280;63234;37.558;127.058;2023-09-30T04:38:45;100986.38;;;17.28;72.93
74716;BME280;63234;37.558;127.058;2023-09-30T04:41:11;100979.97;;;17.29;73.01
74716;BME280;63234;37.558;127.058;2023-09-30T04:43:36;100979.53;;;17.37;72.62
74716;BME280;63234;37.558;127.058;2023-09-30T04:46:06;100987.22;;;17.46;72.27
74716;BME280;63234;37.558;127.058;2023-09-30T04:48:35;100996.44;;;17.33;72.50
74716;BME280;63234;37.558;127.058;2023-09-30T04:51:01;100987.06;;;17.35;72.35
74716;BME280;63234;37.558;127.058;2023-09-30T04:53:30;100979.97;;;17.29;72.97
74716;BME280;63234;37.558;127.058;2023-09-30T04:55:59;100980.53;;;17.48;72.24
74716;BME280;63234;37.558;127.058;2023-09-30T04:58:27;100969.06;;;17.36;72.38
74716;BME280;63234;37.558;127.058;2023-09-30T05:00:52;100973.69;;;17.40;72.32
74716;BME280;63234;37.558;127.058;2023-09-30T05:03:18;100982.00;;;17.39;72.41
74716;BME280;63234;37.558;127.058;2023-09-30T05:05:44;100982.97;;;17.50;71.86
74716;BME280;63234;37.558;127.058;2023-09-30T05:08:10;100986.13;;;17.47;72.01
74716;BME280;63234;37.558;127.058;2023-09-30T05:10:38;100983.63;;;17.40;72.22
74716;BME280;63234;37.558;127.058;2023-09-30T05:13:04;100990.16;;;17.27;72.65
74716;BME280;63234;37.558;127.058;2023-09-30T05:15:30;100987.06;;;17.35;72.41
74716;BME280;63234;37.558;127.058;2023-09-30T05:17:58;100990.97;;;17.45;71.84
74716;BME280;63234;37.558;127.058;2023-09-30T05:20:23;100990.16;;;17.44;71.72
74716;BME280;63234;37.558;127.058;2023-09-30T05:22:49;100995.38;;;17.17;72.54
74716;BME280;63234;37.558;127.058;2023-09-30T05:25:16;101001.13;;;17.09;72.98
74716;BME280;63234;37.558;127.058;2023-09-30T05:27:44;100987.88;;;17.02;73.28
74716;BME280;63234;37.558;127.058;2023-09-30T05:30:10;101002.97;;;16.91;73.87
74716;BME280;63234;37.558;127.058;2023-09-30T05:32:37;101001.50;;;16.84;73.86
74716;BME280;63234;37.558;127.058;2023-09-30T05:35:05;100997.78;;;16.73;74.30
74716;BME280;63234;37.558;127.058;2023-09-30T05:37:39;100997.72;;;16.68;74.69
74716;BME280;63234;37.558;127.058;2023-09-30T05:40:06;100998.94;;;16.48;75.66
74716;BME280;63234;37.558;127.058;2023-09-30T05:42:45;100997.19;;;16.42;75.54
74716;BME280;63234;37.558;127.058;2023-09-30T05:45:11;100997.75;;;16.56;75.56
74716;BME280;63234;37.558;127.058;2023-09-30T05:47:38;100999.31;;;16.69;74.95
74716;BME280;63234;37.558;127.058;2023-09-30T05:50:07;100992.88;;;16.70;74.57
74716;BME280;63234;37.558;127.058;2023-09-30T05:52:34;101016.13;;;16.76;74.63
74716;BME280;63234;37.558;127.058;2023-09-30T05:55:02;101020.38;;;16.89;74.45
74716;BME280;63234;37.558;127.058;2023-09-30T05:57:28;101012.31;;;16.89;73.98
74716;BME280;63234;37.558;127.058;2023-09-30T05:59:54;101018.94;;;16.98;73.69
74716;BME280;63234;37.558;127.058;2023-09-30T06:02:19;101019.19;;;16.96;73.51
74716;BME280;63234;37.558;127.058;2023-09-30T06:04:45;101013.66;;;17.03;73.34
74716;BME280;63234;37.558;127.058;2023-09-30T06:07:12;101015.44;;;16.97;73.58
74716;BME280;63234;37.558;127.058;2023-09-30T06:09:37;101014.53;;;16.92;73.55
74716;BME280;63234;37.558;127.058;2023-09-30T06:12:03;101014.53;;;16.92;73.69
74716;BME280;63234;37.558;127.058;2023-09-30T06:14:32;101018.28;;;16.91;74.05
74716;BME280;63234;37.558;127.058;2023-09-30T06:16:58;101026.25;;;16.86;73.81
74716;BME280;63234;37.558;127.058;2023-09-30T06:19:24;101024.41;;;16.74;74.32
74716;BME280;63234;37.558;127.058;2023-09-30T06:21:52;101034.72;;;16.78;74.37
74716;BME280;63234;37.558;127.058;2023-09-30T06:24:17;101039.84;;;16.67;74.46
74716;BME280;63234;37.558;127.058;2023-09-30T06:26:47;101030.97;;;16.38;75.78
74716;BME280;63234;37.558;127.058;2023-09-30T06:29:14;101037.81;;;16.34;76.08
74716;BME280;63234;37.558;127.058;2023-09-30T06:31:40;101042.50;;;16.39;75.98
74716;BME280;63234;37.558;127.058;2023-09-30T06:34:06;101047.41;;;16.42;75.73
74716;BME280;63234;37.558;127.058;2023-09-30T06:36:32;101041.22;;;16.41;76.08
74716;BME280;63234;37.558;127.058;2023-09-30T06:38:58;101043.28;;;16.51;75.37
74716;BME280;63234;37.558;127.058;2023-09-30T06:41:24;101046.53;;;16.65;74.89
74716;BME280;63234;37.558;127.058;2023-09-30T06:43:51;101047.66;;;16.69;74.66
74716;BME280;63234;37.558;127.058;2023-09-30T06:46:17;101041.97;;;16.65;74.50
74716;BME280;63234;37.558;127.058;2023-09-30T06:48:43;101041.63;;;16.62;74.62
74716;BME280;63234;37.558;127.058;2023-09-30T06:51:14;101047.41;;;16.42;75.35
74716;BME280;63234;37.558;127.058;2023-09-30T06:53:43;101058.81;;;16.49;75.27
74716;BME280;63234;37.558;127.058;2023-09-30T06:56:09;101054.00;;;16.63;75.06
74716;BME280;63234;37.558;127.058;2023-09-30T06:58:35;101053.19;;;16.62;74.73
74716;BME280;63234;37.558;127.058;2023-09-30T07:01:01;101058.63;;;16.79;74.31
74716;BME280;63234;37.558;127.058;2023-09-30T07:03:27;101051.25;;;16.86;74.12
74716;BME280;63234;37.558;127.058;2023-09-30T07:05:53;101058.41;;;16.81;74.25
74716;BME280;63234;37.558;127.058;2023-09-30T07:08:20;101065.56;;;16.92;73.82
74716;BME280;63234;37.558;127.058;2023-09-30T07:10:49;101071.38;;;17.01;73.63
74716;BME280;63234;37.558;127.058;2023-09-30T07:13:16;101069.91;;;16.93;73.81
74716;BME280;63234;37.558;127.058;2023-09-30T07:15:43;101080.50;;;17.00;73.61
74716;BME280;63234;37.558;127.058;2023-09-30T07:18:09;101086.78;;;17.05;73.56
74716;BME280;63234;37.558;127.058;2023-09-30T07:20:35;101089.19;;;17.18;72.97
74716;BME280;63234;37.558;127.058;2023-09-30T07:23:01;101091.97;;;16.95;73.62
74716;BME280;63234;37.558;127.058;2023-09-30T07:25:29;101090.66;;;16.97;73.40
74716;BME280;63234;37.558;127.058;2023-09-30T07:27:58;101088.59;;;16.88;74.20
74716;BME280;63234;37.558;127.058;2023-09-30T07:30:26;101072.94;;;16.96;73.90
74716;BME280;63234;37.558;127.058;2023-09-30T07:32:52;101095.44;;;17.07;73.59
74716;BME280;63234;37.558;127.058;2023-09-30T07:35:18;101098.69;;;17.09;73.69
74716;BME280;63234;37.558;127.058;2023-09-30T07:37:44;101093.31;;;17.09;73.96
74716;BME280;63234;37.558;127.058;2023-09-30T07:40:10;101083.69;;;16.96;74.14
74716;BME280;63234;37.558;127.058;2023-09-30T07:42:36;101100.13;;;17.00;74.16
74716;BME280;63234;37.558;127.058;2023-09-30T07:45:03;101099.94;;;17.18;73.49
74716;BME280;63234;37.558;127.058;2023-09-30T07:47:32;101094.88;;;17.22;73.00
74716;BME280;63234;37.558;127.058;2023-09-30T07:50:02;101093.41;;;17.14;73.50
74716;BME280;63234;37.558;127.058;2023-09-30T07:52:36;101075.50;;;17.20;73.38
74716;BME280;63234;37.558;127.058;2023-09-30T07:55:02;101074.38;;;17.33;72.65
74716;BME280;63234;37.558;127.058;2023-09-30T07:57:30;101078.88;;;17.44;72.69
74716;BME280;63234;37.558;127.058;2023-09-30T07:59:56;101068.53;;;17.36;72.91
74716;BME280;63234;37.558;127.058;2023-09-30T08:02:21;101067.06;;;17.45;72.73
74716;BME280;63234;37.558;127.058;2023-09-30T08:04:48;101066.09;;;17.51;72.68
74716;BME280;63234;37.558;127.058;2023-09-30T08:07:13;101062.50;;;17.62;72.27
74716;BME280;63234;37.558;127.058;2023-09-30T08:09:39;101066.19;;;17.56;72.71
74716;BME280;63234;37.558;127.058;2023-09-30T08:12:05;101077.97;;;17.72;71.89
74716;BME280;63234;37.558;127.058;2023-09-30T08:14:32;101078.47;;;17.69;72.32
74716;BME280;63234;37.558;127.058;2023-09-30T08:16:57;101085.91;;;17.79;72.13
74716;BME280;63234;37.558;127.058;2023-09-30T08:19:23;101089.63;;;17.95;71.88
74716;BME280;63234;37.558;127.058;2023-09-30T08:21:49;101102.13;;;17.84;71.98
74716;BME280;63234;37.558;127.058;2023-09-30T08:24:14;101109.91;;;17.80;72.24
74716;BME280;63234;37.558;127.058;2023-09-30T08:26:40;101111.09;;;17.90;72.23
74716;BME280;63234;37.558;127.058;2023-09-30T08:29:06;101102.91;;;18.01;71.79
74716;BME280;63234;37.558;127.058;2023-09-30T08:31:32;101096.69;;;17.96;72.08
74716;BME280;63234;37.558;127.058;2023-09-30T08:33:58;101100.88;;;18.08;71.62
74716;BME280;63234;37.558;127.058;2023-09-30T08:36:24;101104.31;;;18.04;71.79
74716;BME280;63234;37.558;127.058;2023-09-30T08:38:50;101098.66;;;18.22;71.28
74716;BME280;63234;37.558;127.058;2023-09-30T08:41:32;101101.09;;;18.24;70.91
74716;BME280;63234;37.558;127.058;2023-09-30T08:44:00;101090.72;;;18.32;70.90
74716;BME280;63234;37.558;127.058;2023-09-30T08:46:30;101094.22;;;18.33;70.84
74716;BME280;63234;37.558;127.058;2023-09-30T08:48:58;101085.25;;;18.27;70.78
74716;BME280;63234;37.558;127.058;2023-09-30T08:51:25;101082.47;;;18.39;70.32
74716;BME280;63234;37.558;127.058;2023-09-30T08:53:52;101091.03;;;18.36;70.52
74716;BME280;63234;37.558;127.058;2023-09-30T08:56:20;101088.03;;;18.32;70.67
74716;BME280;63234;37.558;127.058;2023-09-30T08:58:50;101092.84;;;18.52;70.26
74716;BME280;63234;37.558;127.058;2023-09-30T09:01:16;101103.38;;;18.54;70.27
74716;BME280;63234;37.558;127.058;2023-09-30T09:03:42;101084.94;;;18.68;69.82
74716;BME280;63234;37.558;127.058;2023-09-30T09:06:08;101091.09;;;18.63;69.86
74716;BME280;63234;37.558;127.058;2023-09-30T09:08:34;101087.28;;;18.59;70.08
74716;BME280;63234;37.558;127.058;2023-09-30T09:11:00;101088.59;;;18.56;70.00
74716;BME280;63234;37.558;127.058;2023-09-30T09:13:48;101095.22;;;18.71;69.93
74716;BME280;63234;37.558;127.058;2023-09-30T09:16:16;101075.44;;;18.82;69.45
74716;BME280;63234;37.558;127.058;2023-09-30T09:18:46;101082.97;;;18.80;69.46
74716;BME280;63234;37.558;127.058;2023-09-30T09:21:17;101070.72;;;18.94;69.06
74716;BME280;63234;37.558;127.058;2023-09-30T09:23:49;101063.97;;;18.70;69.27
74716;BME280;63234;37.558;127.058;2023-09-30T09:26:25;101053.13;;;18.65;69.54
74716;BME280;63234;37.558;127.058;2023-09-30T09:29:02;101049.88;;;18.85;68.79
74716;BME280;63234;37.558;127.058;2023-09-30T09:31:33;101048.59;;;18.92;68.37
74716;BME280;63234;37.558;127.058;2023-09-30T09:34:01;101057.09;;;19.06;67.78
74716;BME280;63234;37.558;127.058;2023-09-30T09:36:40;101050.34;;;19.03;67.49
74716;BME280;63234;37.558;127.058;2023-09-30T09:39:07;101062.13;;;18.97;67.73
74716;BME280;63234;37.558;127.058;2023-09-30T09:41:32;101060.41;;;19.13;66.76
74716;BME280;63234;37.558;127.058;2023-09-30T09:43:59;101065.91;;;18.96;66.88
74716;BME280;63234;37.558;127.058;2023-09-30T09:46:27;101064.97;;;18.86;67.51
74716;BME280;63234;37.558;127.058;2023-09-30T09:48:55;101069.66;;;18.95;67.40
74716;BME280;63234;37.558;127.058;2023-09-30T09:51:23;101070.28;;;19.02;67.05
74716;BME280;63234;37.558;127.058;2023-09-30T09:53:49;101069.88;;;19.16;66.64
74716;BME280;63234;37.558;127.058;2023-09-30T09:56:17;101067.59;;;19.35;65.61
74716;BME280;63234;37.558;127.058;2023-09-30T09:58:46;101066.88;;;19.44;65.11
74716;BME280;63234;37.558;127.058;2023-09-30T10:01:13;101065.41;;;19.27;65.32
74716;BME280;63234;37.558;127.058;2023-09-30T10:03:39;101059.81;;;19.38;64.93
74716;BME280;63234;37.558;127.058;2023-09-30T10:06:05;101060.88;;;19.37;64.81
74716;BME280;63234;37.558;127.058;2023-09-30T10:08:38;101059.63;;;19.50;63.91
74716;BME280;63234;37.558;127.058;2023-09-30T10:11:06;101051.06;;;19.26;64.57
74716;BME280;63234;37.558;127.058;2023-09-30T10:13:55;101052.34;;;19.51;64.47
74716;BME280;63234;37.558;127.058;2023-09-30T10:24:56;101043.50;;;19.55;63.58
74716;BME280;63234;37.558;127.058;2023-09-30T10:30:09;101053.91;;;19.74;63.03
74716;BME280;63234;37.558;127.058;2023-09-30T10:33:07;101059.69;;;19.87;63.10
74716;BME280;63234;37.558;127.058;2023-09-30T10:40:48;101052.63;;;19.86;62.42
74716;BME280;63234;37.558;127.058;2023-09-30T10:43:34;101054.72;;;19.74;62.17
74716;BME280;63234;37.558;127.058;2023-09-30T10:46:49;101053.16;;;19.78;62.63
74716;BME280;63234;37.558;127.058;2023-09-30T10:48:51;101046.16;;;19.82;62.57
74716;BME280;63234;37.558;127.058;2023-09-30T10:51:18;101038.09;;;19.87;62.27
74716;BME280;63234;37.558;127.058;2023-09-30T10:53:54;101051.34;;;19.99;62.13
74716;BME280;63234;37.558;127.058;2023-09-30T10:56:35;101044.81;;;19.85;62.69
74716;BME280;63234;37.558;127.058;2023-09-30T10:59:01;101025.41;;;19.93;61.89
74716;BME280;63234;37.558;127.058;2023-09-30T11:01:37;101019.44;;;19.86;61.93
74716;BME280;63234;37.558;127.058;2023-09-30T11:04:04;101016.50;;;19.87;61.56
74716;BME280;63234;37.558;127.058;2023-09-30T11:06:31;101023.22;;;19.85;61.63
74716;BME280;63234;37.558;127.058;2023-09-30T11:08:58;101019.75;;;19.94;61.29
74716;BME280;63234;37.558;127.058;2023-09-30T11:11:40;101020.31;;;19.97;60.00
74716;BME280;63234;37.558;127.058;2023-09-30T11:14:24;101019.31;;;20.13;59.71
74716;BME280;63234;37.558;127.058;2023-09-30T11:16:52;101016.94;;;20.27;58.70
74716;BME280;63234;37.558;127.058;2023-09-30T11:19:20;101015.59;;;20.24;59.14
74716;BME280;63234;37.558;127.058;2023-09-30T11:21:54;101021.97;;;20.08;58.88
74716;BME280;63234;37.558;127.058;2023-09-30T11:24:24;101019.81;;;20.00;59.29
74716;BME280;63234;37.558;127.058;2023-09-30T11:26:54;101017.25;;;20.35;57.72
74716;BME280;63234;37.558;127.058;2023-09-30T11:29:23;101026.94;;;20.26;58.32
74716;BME280;63234;37.558;127.058;2023-09-30T11:31:50;101008.03;;;20.21;57.75
74716;BME280;63234;37.558;127.058;2023-09-30T11:34:19;101010.13;;;20.09;57.02
74716;BME280;63234;37.558;127.058;2023-09-30T11:36:52;101022.03;;;20.13;57.60
74716;BME280;63234;37.558;127.058;2023-09-30T11:39:25;101008.31;;;20.25;56.92
74716;BME280;63234;37.558;127.058;2023-09-30T11:41:51;101005.31;;;20.26;56.08
74716;BME280;63234;37.558;127.058;2023-09-30T11:44:17;101008.03;;;20.21;55.63
74716;BME280;63234;37.558;127.058;2023-09-30T11:46:59;101014.59;;;20.46;54.85
74716;BME280;63234;37.558;127.058;2023-09-30T11:49:31;101009.03;;;20.83;53.79
74716;BME280;63234;37.558;127.058;2023-09-30T11:52:02;101010.91;;;20.82;53.83
74716;BME280;63234;37.558;127.058;2023-09-30T11:54:36;101007.66;;;20.70;55.26
74716;BME280;63234;37.558;127.058;2023-09-30T11:57:07;101010.88;;;20.62;55.50
74716;BME280;63234;37.558;127.058;2023-09-30T11:59:39;101008.44;;;20.55;56.01
74716;BME280;63234;37.558;127.058;2023-09-30T12:02:07;100994.63;;;20.57;54.74
74716;BME280;63234;37.558;127.058;2023-09-30T12:04:35;100997.03;;;20.43;55.62
74716;BME280;63234;37.558;127.058;2023-09-30T12:07:01;100998.72;;;20.65;55.50
74716;BME280;63234;37.558;127.058;2023-09-30T12:09:26;100992.97;;;20.46;55.22
74716;BME280;63234;37.558;127.058;2023-09-30T12:11:53;100997.91;;;20.64;54.83
74716;BME280;63234;37.558;127.058;2023-09-30T12:14:20;101006.28;;;20.68;54.82
74716;BME280;63234;37.558;127.058;2023-09-30T12:16:46;100999.81;;;20.84;54.07
74716;BME280;63234;37.558;127.058;2023-09-30T12:19:14;100997.16;;;21.04;53.31
74716;BME280;63234;37.558;127.058;2023-09-30T12:21:41;101001.22;;;21.12;53.05
74716;BME280;63234;37.558;127.058;2023-09-30T12:24:08;100998.22;;;20.98;53.47
74716;BME280;63234;37.558;127.058;2023-09-30T12:26:35;101000.38;;;20.96;54.07
74716;BME280;63234;37.558;127.058;2023-09-30T12:29:03;101006.06;;;20.95;54.17
74716;BME280;63234;37.558;127.058;2023-09-30T12:31:29;100991.47;;;20.85;54.75
74716;BME280;63234;37.558;127.058;2023-09-30T12:33:55;100992.78;;;20.78;54.30
74716;BME280;63234;37.558;127.058;2023-09-30T12:36:21;100991.41;;;20.65;54.38
74716;BME280;63234;37.558;127.058;2023-09-30T12:38:47;100998.44;;;20.61;54.50
74716;BME280;63234;37.558;127.058;2023-09-30T12:41:13;100990.25;;;20.40;54.58
74716;BME280;63234;37.558;127.058;2023-09-30T12:43:44;100989.16;;;20.31;54.51
74716;BME280;63234;37.558;127.058;2023-09-30T12:46:10;100981.59;;;20.38;54.27
74716;BME280;63234;37.558;127.058;2023-09-30T12:48:39;100981.81;;;20.27;53.78
74716;BME280;63234;37.558;127.058;2023-09-30T12:51:05;100978.84;;;20.18;53.76